Anniston, Missouri
Current Conditions -  °F | °C
As of 9:15 AM on Friday 31 Oct 2014 (Local Time) from KCIR Reporting Station
Overcast Overcast  
Wind Chill: 53°   Ceiling: 7500
Heat Index: 53°   Visibility: 10mi
Dew Point: 45°   Wind: 13mph
Humidity: 74%   Direction: 350°N
Pressure: 30.13"   Gusts: 24mph
Location:  36.83°N, 89.33°W
Report Text: KCIR 311415Z AUTO 35011G21KT 10SM SCT023 BKN075 OVC110 12/07 A3013 RMK AO2 T01170072
Loading
Personal Weather Stations






























Interactive Weather Map
Tropical Storm Tracking
New forecast layout! Learn more

10-Day Weather Forecast

Advertisements
Track Severe Weather on mobile